sensor_id;sensor_type;location;lat;lon;timestamp;P1;durP1;ratioP1;P2;durP2;ratioP2
43124;SDS011;49182;50.788;7.318;2024-02-16T00:00:24;6.60;;;2.08;;
43124;SDS011;49182;50.788;7.318;2024-02-16T00:05:26;3.72;;;1.75;;
43124;SDS011;49182;50.788;7.318;2024-02-16T00:10:29;2.17;;;1.50;;
43124;SDS011;49182;50.788;7.318;2024-02-16T00:15:30;3.22;;;1.98;;
43124;SDS011;49182;50.788;7.318;2024-02-16T00:20:32;4.65;;;1.77;;
43124;SDS011;49182;50.788;7.318;2024-02-16T00:25:35;3.58;;;2.42;;
43124;SDS011;49182;50.788;7.318;2024-02-16T00:30:37;3.85;;;1.92;;
43124;SDS011;49182;50.788;7.318;2024-02-16T00:35:39;4.82;;;1.73;;
43124;SDS011;49182;50.788;7.318;2024-02-16T00:40:42;3.38;;;2.28;;
43124;SDS011;49182;50.788;7.318;2024-02-16T00:45:44;2.75;;;1.73;;
43124;SDS011;49182;50.788;7.318;2024-02-16T00:50:45;4.93;;;2.22;;
43124;SDS011;49182;50.788;7.318;2024-02-16T00:55:48;4.88;;;1.88;;
43124;SDS011;49182;50.788;7.318;2024-02-16T01:00:50;3.30;;;2.05;;
43124;SDS011;49182;50.788;7.318;2024-02-16T01:05:52;5.43;;;1.95;;
43124;SDS011;49182;50.788;7.318;2024-02-16T01:10:55;5.75;;;1.90;;
43124;SDS011;49182;50.788;7.318;2024-02-16T01:15:57;3.13;;;1.92;;
43124;SDS011;49182;50.788;7.318;2024-02-16T01:20:59;4.05;;;1.63;;
43124;SDS011;49182;50.788;7.318;2024-02-16T01:26:02;5.95;;;1.77;;
43124;SDS011;49182;50.788;7.318;2024-02-16T01:31:04;3.58;;;1.75;;
43124;SDS011;49182;50.788;7.318;2024-02-16T01:36:06;4.15;;;1.77;;
43124;SDS011;49182;50.788;7.318;2024-02-16T01:41:09;4.32;;;1.63;;
43124;SDS011;49182;50.788;7.318;2024-02-16T01:46:12;3.13;;;1.83;;
43124;SDS011;49182;50.788;7.318;2024-02-16T01:51:13;2.40;;;1.17;;
43124;SDS011;49182;50.788;7.318;2024-02-16T01:56:16;4.88;;;1.80;;
43124;SDS011;49182;50.788;7.318;2024-02-16T02:01:19;4.95;;;1.77;;
43124;SDS011;49182;50.788;7.318;2024-02-16T02:06:21;4.88;;;1.75;;
43124;SDS011;49182;50.788;7.318;2024-02-16T02:11:25;2.70;;;2.38;;
43124;SDS011;49182;50.788;7.318;2024-02-16T02:16:27;2.58;;;1.70;;
43124;SDS011;49182;50.788;7.318;2024-02-16T02:21:29;2.72;;;1.83;;
43124;SDS011;49182;50.788;7.318;2024-02-16T02:26:33;6.47;;;2.92;;
43124;SDS011;49182;50.788;7.318;2024-02-16T02:31:35;6.32;;;1.48;;
43124;SDS011;49182;50.788;7.318;2024-02-16T02:36:36;4.13;;;2.80;;
43124;SDS011;49182;50.788;7.318;2024-02-16T02:41:40;3.92;;;1.50;;
43124;SDS011;49182;50.788;7.318;2024-02-16T02:46:41;3.03;;;2.10;;
43124;SDS011;49182;50.788;7.318;2024-02-16T02:51:43;7.50;;;1.85;;
43124;SDS011;49182;50.788;7.318;2024-02-16T02:56:46;3.38;;;1.38;;
43124;SDS011;49182;50.788;7.318;2024-02-16T03:01:48;3.25;;;1.90;;
43124;SDS011;49182;50.788;7.318;2024-02-16T03:06:51;3.45;;;1.67;;
43124;SDS011;49182;50.788;7.318;2024-02-16T03:11:54;2.92;;;1.85;;
43124;SDS011;49182;50.788;7.318;2024-02-16T03:16:56;6.35;;;2.28;;
43124;SDS011;49182;50.788;7.318;2024-02-16T03:21:58;2.13;;;1.13;;
43124;SDS011;49182;50.788;7.318;2024-02-16T03:27:01;3.38;;;1.85;;
43124;SDS011;49182;50.788;7.318;2024-02-16T03:32:03;3.00;;;2.00;;
43124;SDS011;49182;50.788;7.318;2024-02-16T03:37:04;3.92;;;2.20;;
43124;SDS011;49182;50.788;7.318;2024-02-16T03:42:08;5.28;;;2.05;;
43124;SDS011;49182;50.788;7.318;2024-02-16T03:47:09;4.03;;;1.90;;
43124;SDS011;49182;50.788;7.318;2024-02-16T03:52:11;3.05;;;2.33;;
43124;SDS011;49182;50.788;7.318;2024-02-16T03:57:14;3.55;;;2.13;;
43124;SDS011;49182;50.788;7.318;2024-02-16T04:02:16;8.23;;;2.40;;
43124;SDS011;49182;50.788;7.318;2024-02-16T04:07:17;3.90;;;2.17;;
43124;SDS011;49182;50.788;7.318;2024-02-16T04:12:21;4.22;;;2.58;;
43124;SDS011;49182;50.788;7.318;2024-02-16T04:17:22;3.35;;;1.88;;
43124;SDS011;49182;50.788;7.318;2024-02-16T04:22:24;3.92;;;2.33;;
43124;SDS011;49182;50.788;7.318;2024-02-16T04:27:27;2.65;;;1.77;;
43124;SDS011;49182;50.788;7.318;2024-02-16T04:32:29;7.28;;;2.67;;
43124;SDS011;49182;50.788;7.318;2024-02-16T04:42:34;4.18;;;2.25;;
43124;SDS011;49182;50.788;7.318;2024-02-16T04:47:36;3.40;;;1.98;;
43124;SDS011;49182;50.788;7.318;2024-02-16T04:52:38;8.93;;;2.30;;
43124;SDS011;49182;50.788;7.318;2024-02-16T04:57:41;4.88;;;2.78;;
43124;SDS011;49182;50.788;7.318;2024-02-16T05:02:43;3.15;;;1.95;;
43124;SDS011;49182;50.788;7.318;2024-02-16T05:07:48;3.35;;;1.83;;
43124;SDS011;49182;50.788;7.318;2024-02-16T05:12:51;2.92;;;1.92;;
43124;SDS011;49182;50.788;7.318;2024-02-16T05:17:53;2.88;;;1.65;;
43124;SDS011;49182;50.788;7.318;2024-02-16T05:22:55;3.20;;;2.13;;
43124;SDS011;49182;50.788;7.318;2024-02-16T05:27:58;4.80;;;2.25;;
43124;SDS011;49182;50.788;7.318;2024-02-16T05:33:00;4.40;;;2.53;;
43124;SDS011;49182;50.788;7.318;2024-02-16T05:38:02;3.40;;;2.03;;
43124;SDS011;49182;50.788;7.318;2024-02-16T05:43:05;5.03;;;2.22;;
43124;SDS011;49182;50.788;7.318;2024-02-16T05:48:07;4.43;;;2.83;;
43124;SDS011;49182;50.788;7.318;2024-02-16T05:53:09;5.00;;;1.65;;
43124;SDS011;49182;50.788;7.318;2024-02-16T05:58:12;2.35;;;1.70;;
43124;SDS011;49182;50.788;7.318;2024-02-16T06:03:14;5.85;;;2.10;;
43124;SDS011;49182;50.788;7.318;2024-02-16T06:08:16;4.70;;;2.67;;
43124;SDS011;49182;50.788;7.318;2024-02-16T06:13:19;5.13;;;2.40;;
43124;SDS011;49182;50.788;7.318;2024-02-16T06:18:21;3.15;;;2.03;;
43124;SDS011;49182;50.788;7.318;2024-02-16T06:23:23;6.43;;;2.30;;
43124;SDS011;49182;50.788;7.318;2024-02-16T06:28:26;4.30;;;2.72;;
43124;SDS011;49182;50.788;7.318;2024-02-16T06:33:28;3.75;;;2.15;;
43124;SDS011;49182;50.788;7.318;2024-02-16T06:38:30;4.65;;;3.20;;
43124;SDS011;49182;50.788;7.318;2024-02-16T06:43:33;4.78;;;2.42;;
43124;SDS011;49182;50.788;7.318;2024-02-16T06:48:35;6.28;;;2.58;;
43124;SDS011;49182;50.788;7.318;2024-02-16T06:53:37;3.58;;;2.35;;
43124;SDS011;49182;50.788;7.318;2024-02-16T06:58:40;3.00;;;1.98;;
43124;SDS011;49182;50.788;7.318;2024-02-16T07:03:42;6.22;;;2.42;;
43124;SDS011;49182;50.788;7.318;2024-02-16T07:08:45;4.40;;;2.25;;
43124;SDS011;49182;50.788;7.318;2024-02-16T07:13:48;3.63;;;1.77;;
43124;SDS011;49182;50.788;7.318;2024-02-16T07:18:50;4.15;;;1.95;;
43124;SDS011;49182;50.788;7.318;2024-02-16T07:23:52;5.75;;;2.20;;
43124;SDS011;49182;50.788;7.318;2024-02-16T07:28:55;3.70;;;2.28;;
43124;SDS011;49182;50.788;7.318;2024-02-16T07:33:57;5.88;;;2.15;;
43124;SDS011;49182;50.788;7.318;2024-02-16T07:38:59;3.78;;;1.90;;
43124;SDS011;49182;50.788;7.318;2024-02-16T07:44:02;3.05;;;2.17;;
43124;SDS011;49182;50.788;7.318;2024-02-16T07:49:04;6.90;;;2.72;;
43124;SDS011;49182;50.788;7.318;2024-02-16T07:54:06;4.63;;;2.00;;
43124;SDS011;49182;50.788;7.318;2024-02-16T07:59:09;4.45;;;1.95;;
43124;SDS011;49182;50.788;7.318;2024-02-16T08:04:11;4.72;;;2.97;;
43124;SDS011;49182;50.788;7.318;2024-02-16T08:09:12;6.18;;;2.00;;
43124;SDS011;49182;50.788;7.318;2024-02-16T08:14:15;5.18;;;2.53;;
43124;SDS011;49182;50.788;7.318;2024-02-16T08:19:17;7.30;;;2.25;;
43124;SDS011;49182;50.788;7.318;2024-02-16T08:24:19;5.53;;;2.65;;
43124;SDS011;49182;50.788;7.318;2024-02-16T08:29:22;4.50;;;2.50;;
43124;SDS011;49182;50.788;7.318;2024-02-16T08:34:24;3.45;;;2.15;;
43124;SDS011;49182;50.788;7.318;2024-02-16T08:39:25;6.28;;;2.55;;
43124;SDS011;49182;50.788;7.318;2024-02-16T08:44:28;3.90;;;2.33;;
43124;SDS011;49182;50.788;7.318;2024-02-16T08:49:30;6.18;;;3.65;;
43124;SDS011;49182;50.788;7.318;2024-02-16T08:54:32;5.38;;;2.78;;
43124;SDS011;49182;50.788;7.318;2024-02-16T08:59:35;6.13;;;2.30;;
43124;SDS011;49182;50.788;7.318;2024-02-16T09:04:37;4.88;;;2.20;;
43124;SDS011;49182;50.788;7.318;2024-02-16T09:09:39;4.50;;;2.25;;
43124;SDS011;49182;50.788;7.318;2024-02-16T09:14:43;4.20;;;2.33;;
43124;SDS011;49182;50.788;7.318;2024-02-16T09:19:44;5.50;;;3.10;;
43124;SDS011;49182;50.788;7.318;2024-02-16T09:24:46;7.20;;;3.88;;
43124;SDS011;49182;50.788;7.318;2024-02-16T09:29:49;8.63;;;3.85;;
43124;SDS011;49182;50.788;7.318;2024-02-16T09:34:51;5.88;;;2.65;;
43124;SDS011;49182;50.788;7.318;2024-02-16T09:39:53;4.78;;;2.75;;
43124;SDS011;49182;50.788;7.318;2024-02-16T09:44:56;3.65;;;2.80;;
43124;SDS011;49182;50.788;7.318;2024-02-16T09:49:58;7.65;;;2.90;;
43124;SDS011;49182;50.788;7.318;2024-02-16T09:55:00;5.03;;;2.40;;
43124;SDS011;49182;50.788;7.318;2024-02-16T10:00:04;4.40;;;2.22;;
43124;SDS011;49182;50.788;7.318;2024-02-16T10:05:13;5.10;;;2.08;;
43124;SDS011;49182;50.788;7.318;2024-02-16T10:10:19;2.80;;;1.77;;
43124;SDS011;49182;50.788;7.318;2024-02-16T10:15:23;4.75;;;2.70;;
43124;SDS011;49182;50.788;7.318;2024-02-16T10:20:25;5.88;;;3.10;;
43124;SDS011;49182;50.788;7.318;2024-02-16T10:25:27;17.63;;;6.25;;
43124;SDS011;49182;50.788;7.318;2024-02-16T10:30:34;7.72;;;5.03;;
43124;SDS011;49182;50.788;7.318;2024-02-16T10:35:37;5.50;;;2.65;;
43124;SDS011;49182;50.788;7.318;2024-02-16T10:40:39;4.65;;;2.25;;
43124;SDS011;49182;50.788;7.318;2024-02-16T10:45:43;4.05;;;2.35;;
43124;SDS011;49182;50.788;7.318;2024-02-16T10:50:45;7.30;;;5.40;;
43124;SDS011;49182;50.788;7.318;2024-02-16T11:00:51;5.72;;;2.40;;
43124;SDS011;49182;50.788;7.318;2024-02-16T11:05:54;4.22;;;2.88;;
43124;SDS011;49182;50.788;7.318;2024-02-16T11:10:56;6.07;;;2.67;;
43124;SDS011;49182;50.788;7.318;2024-02-16T11:16:00;7.18;;;2.35;;
43124;SDS011;49182;50.788;7.318;2024-02-16T11:21:03;5.22;;;2.35;;
43124;SDS011;49182;50.788;7.318;2024-02-16T11:26:08;7.82;;;2.22;;
43124;SDS011;49182;50.788;7.318;2024-02-16T11:31:12;6.43;;;2.92;;
43124;SDS011;49182;50.788;7.318;2024-02-16T11:36:16;4.90;;;2.47;;
43124;SDS011;49182;50.788;7.318;2024-02-16T11:41:17;4.53;;;2.65;;
43124;SDS011;49182;50.788;7.318;2024-02-16T11:46:20;6.38;;;3.08;;
43124;SDS011;49182;50.788;7.318;2024-02-16T11:51:22;4.15;;;2.58;;
43124;SDS011;49182;50.788;7.318;2024-02-16T11:56:25;6.00;;;2.35;;
43124;SDS011;49182;50.788;7.318;2024-02-16T12:01:28;7.57;;;2.60;;
43124;SDS011;49182;50.788;7.318;2024-02-16T12:06:30;6.00;;;3.85;;
43124;SDS011;49182;50.788;7.318;2024-02-16T12:11:32;4.07;;;2.45;;
43124;SDS011;49182;50.788;7.318;2024-02-16T12:16:36;5.75;;;2.83;;
43124;SDS011;49182;50.788;7.318;2024-02-16T12:21:38;6.00;;;3.20;;
43124;SDS011;49182;50.788;7.318;2024-02-16T12:26:40;6.65;;;3.70;;
43124;SDS011;49182;50.788;7.318;2024-02-16T12:31:43;4.68;;;2.95;;
43124;SDS011;49182;50.788;7.318;2024-02-16T12:36:46;5.30;;;3.80;;
43124;SDS011;49182;50.788;7.318;2024-02-16T12:41:51;5.40;;;2.35;;
43124;SDS011;49182;50.788;7.318;2024-02-16T12:46:54;6.60;;;3.72;;
43124;SDS011;49182;50.788;7.318;2024-02-16T12:51:56;4.50;;;3.00;;
43124;SDS011;49182;50.788;7.318;2024-02-16T12:56:58;8.48;;;4.80;;
43124;SDS011;49182;50.788;7.318;2024-02-16T13:02:01;6.45;;;4.18;;
43124;SDS011;49182;50.788;7.318;2024-02-16T13:07:03;4.57;;;2.50;;
43124;SDS011;49182;50.788;7.318;2024-02-16T13:12:05;6.05;;;3.00;;
43124;SDS011;49182;50.788;7.318;2024-02-16T13:22:10;6.07;;;3.50;;
43124;SDS011;49182;50.788;7.318;2024-02-16T13:27:11;5.57;;;2.60;;
43124;SDS011;49182;50.788;7.318;2024-02-16T13:32:15;5.30;;;3.47;;
43124;SDS011;49182;50.788;7.318;2024-02-16T13:37:17;7.20;;;2.83;;
43124;SDS011;49182;50.788;7.318;2024-02-16T13:42:19;13.95;;;2.90;;
43124;SDS011;49182;50.788;7.318;2024-02-16T13:47:23;10.45;;;3.53;;
43124;SDS011;49182;50.788;7.318;2024-02-16T13:52:25;6.82;;;2.95;;
43124;SDS011;49182;50.788;7.318;2024-02-16T13:57:27;7.10;;;3.10;;
43124;SDS011;49182;50.788;7.318;2024-02-16T14:02:30;6.97;;;3.67;;
43124;SDS011;49182;50.788;7.318;2024-02-16T14:07:32;7.78;;;3.17;;
43124;SDS011;49182;50.788;7.318;2024-02-16T14:12:44;7.32;;;3.35;;
43124;SDS011;49182;50.788;7.318;2024-02-16T14:17:47;7.97;;;3.10;;
43124;SDS011;49182;50.788;7.318;2024-02-16T14:22:49;4.22;;;3.20;;
43124;SDS011;49182;50.788;7.318;2024-02-16T14:27:51;6.30;;;3.53;;
43124;SDS011;49182;50.788;7.318;2024-02-16T14:32:54;5.95;;;3.30;;
43124;SDS011;49182;50.788;7.318;2024-02-16T14:37:56;5.45;;;3.10;;
43124;SDS011;49182;50.788;7.318;2024-02-16T14:42:58;7.55;;;3.08;;
43124;SDS011;49182;50.788;7.318;2024-02-16T14:48:01;10.68;;;3.00;;
43124;SDS011;49182;50.788;7.318;2024-02-16T14:53:03;5.80;;;2.88;;
43124;SDS011;49182;50.788;7.318;2024-02-16T14:58:05;12.80;;;5.40;;
43124;SDS011;49182;50.788;7.318;2024-02-16T15:03:08;9.68;;;4.90;;
43124;SDS011;49182;50.788;7.318;2024-02-16T15:08:09;4.65;;;2.78;;
43124;SDS011;49182;50.788;7.318;2024-02-16T15:13:11;7.65;;;3.88;;
43124;SDS011;49182;50.788;7.318;2024-02-16T15:18:14;5.22;;;3.35;;
43124;SDS011;49182;50.788;7.318;2024-02-16T15:23:16;13.07;;;3.50;;
43124;SDS011;49182;50.788;7.318;2024-02-16T15:28:18;6.70;;;3.63;;
43124;SDS011;49182;50.788;7.318;2024-02-16T15:33:21;4.95;;;3.50;;
43124;SDS011;49182;50.788;7.318;2024-02-16T15:38:23;8.50;;;4.95;;
43124;SDS011;49182;50.788;7.318;2024-02-16T15:43:25;8.90;;;3.75;;
43124;SDS011;49182;50.788;7.318;2024-02-16T15:48:28;9.02;;;3.83;;
43124;SDS011;49182;50.788;7.318;2024-02-16T15:53:30;5.93;;;2.60;;
43124;SDS011;49182;50.788;7.318;2024-02-16T15:58:31;6.07;;;3.63;;
43124;SDS011;49182;50.788;7.318;2024-02-16T16:03:34;5.80;;;3.15;;
43124;SDS011;49182;50.788;7.318;2024-02-16T16:08:36;4.88;;;3.97;;
43124;SDS011;49182;50.788;7.318;2024-02-16T16:13:39;8.95;;;4.88;;
43124;SDS011;49182;50.788;7.318;2024-02-16T16:18:42;7.07;;;4.45;;
43124;SDS011;49182;50.788;7.318;2024-02-16T16:23:44;6.38;;;4.22;;
43124;SDS011;49182;50.788;7.318;2024-02-16T16:28:45;9.77;;;5.68;;
43124;SDS011;49182;50.788;7.318;2024-02-16T16:33:48;5.00;;;3.58;;
43124;SDS011;49182;50.788;7.318;2024-02-16T16:38:50;8.15;;;4.78;;
43124;SDS011;49182;50.788;7.318;2024-02-16T16:43:52;6.93;;;5.13;;
43124;SDS011;49182;50.788;7.318;2024-02-16T16:48:55;8.77;;;6.13;;
43124;SDS011;49182;50.788;7.318;2024-02-16T16:53:57;17.52;;;7.28;;
43124;SDS011;49182;50.788;7.318;2024-02-16T16:58:59;5.75;;;3.83;;
43124;SDS011;49182;50.788;7.318;2024-02-16T17:04:02;5.00;;;3.92;;
43124;SDS011;49182;50.788;7.318;2024-02-16T17:09:04;5.55;;;3.53;;
43124;SDS011;49182;50.788;7.318;2024-02-16T17:14:06;4.43;;;2.30;;
43124;SDS011;49182;50.788;7.318;2024-02-16T17:19:09;5.30;;;4.38;;
43124;SDS011;49182;50.788;7.318;2024-02-16T17:24:11;5.70;;;3.05;;
43124;SDS011;49182;50.788;7.318;2024-02-16T17:29:13;5.50;;;4.68;;
43124;SDS011;49182;50.788;7.318;2024-02-16T17:34:16;6.03;;;4.63;;
43124;SDS011;49182;50.788;7.318;2024-02-16T17:39:18;6.97;;;4.93;;
43124;SDS011;49182;50.788;7.318;2024-02-16T17:44:20;7.32;;;4.25;;
43124;SDS011;49182;50.788;7.318;2024-02-16T17:49:23;5.13;;;3.97;;
43124;SDS011;49182;50.788;7.318;2024-02-16T17:54:28;4.68;;;3.80;;
43124;SDS011;49182;50.788;7.318;2024-02-16T17:59:30;4.30;;;2.85;;
43124;SDS011;49182;50.788;7.318;2024-02-16T18:04:33;9.20;;;5.20;;
43124;SDS011;49182;50.788;7.318;2024-02-16T18:09:35;5.57;;;4.30;;
43124;SDS011;49182;50.788;7.318;2024-02-16T18:14:37;4.75;;;3.25;;
43124;SDS011;49182;50.788;7.318;2024-02-16T18:19:40;6.35;;;4.13;;
43124;SDS011;49182;50.788;7.318;2024-02-16T18:24:42;6.47;;;3.97;;
43124;SDS011;49182;50.788;7.318;2024-02-16T18:29:45;6.68;;;4.43;;
43124;SDS011;49182;50.788;7.318;2024-02-16T18:34:48;5.40;;;4.22;;
43124;SDS011;49182;50.788;7.318;2024-02-16T18:39:50;5.82;;;3.95;;
43124;SDS011;49182;50.788;7.318;2024-02-16T18:44:52;5.40;;;4.10;;
43124;SDS011;49182;50.788;7.318;2024-02-16T18:49:55;7.57;;;4.85;;
43124;SDS011;49182;50.788;7.318;2024-02-16T18:54:57;7.00;;;4.95;;
43124;SDS011;49182;50.788;7.318;2024-02-16T18:59:59;7.80;;;5.57;;
43124;SDS011;49182;50.788;7.318;2024-02-16T19:05:03;7.68;;;6.15;;
43124;SDS011;49182;50.788;7.318;2024-02-16T19:10:05;6.45;;;5.20;;
43124;SDS011;49182;50.788;7.318;2024-02-16T19:15:08;7.45;;;6.18;;
43124;SDS011;49182;50.788;7.318;2024-02-16T19:20:12;8.55;;;5.88;;
43124;SDS011;49182;50.788;7.318;2024-02-16T19:25:14;12.55;;;8.18;;
43124;SDS011;49182;50.788;7.318;2024-02-16T19:30:16;10.68;;;7.65;;
43124;SDS011;49182;50.788;7.318;2024-02-16T19:35:19;14.00;;;9.70;;
43124;SDS011;49182;50.788;7.318;2024-02-16T19:40:21;14.15;;;10.63;;
43124;SDS011;49182;50.788;7.318;2024-02-16T19:45:22;12.32;;;8.82;;
43124;SDS011;49182;50.788;7.318;2024-02-16T19:50:31;14.75;;;9.50;;
43124;SDS011;49182;50.788;7.318;2024-02-16T19:55:33;17.90;;;9.32;;
43124;SDS011;49182;50.788;7.318;2024-02-16T20:00:34;13.05;;;8.38;;
43124;SDS011;49182;50.788;7.318;2024-02-16T20:05:38;11.20;;;7.38;;
43124;SDS011;49182;50.788;7.318;2024-02-16T20:10:40;13.27;;;9.00;;
43124;SDS011;49182;50.788;7.318;2024-02-16T20:15:41;16.85;;;8.75;;
43124;SDS011;49182;50.788;7.318;2024-02-16T20:20:45;18.90;;;9.32;;
43124;SDS011;49182;50.788;7.318;2024-02-16T20:25:47;14.10;;;8.02;;
43124;SDS011;49182;50.788;7.318;2024-02-16T20:30:48;12.93;;;7.25;;
43124;SDS011;49182;50.788;7.318;2024-02-16T20:35:52;12.98;;;8.23;;
43124;SDS011;49182;50.788;7.318;2024-02-16T20:40:53;10.93;;;7.20;;
43124;SDS011;49182;50.788;7.318;2024-02-16T20:45:55;13.18;;;7.85;;
43124;SDS011;49182;50.788;7.318;2024-02-16T20:50:58;15.10;;;8.85;;
43124;SDS011;49182;50.788;7.318;2024-02-16T20:56:00;14.40;;;9.30;;
43124;SDS011;49182;50.788;7.318;2024-02-16T21:01:02;12.73;;;7.90;;
43124;SDS011;49182;50.788;7.318;2024-02-16T21:06:05;10.43;;;6.72;;
43124;SDS011;49182;50.788;7.318;2024-02-16T21:11:08;11.73;;;7.13;;
43124;SDS011;49182;50.788;7.318;2024-02-16T21:16:09;10.70;;;6.97;;
43124;SDS011;49182;50.788;7.318;2024-02-16T21:21:12;10.85;;;7.10;;
43124;SDS011;49182;50.788;7.318;2024-02-16T21:26:14;13.45;;;7.20;;
43124;SDS011;49182;50.788;7.318;2024-02-16T21:31:16;13.23;;;7.60;;
43124;SDS011;49182;50.788;7.318;2024-02-16T21:36:19;11.55;;;6.97;;
43124;SDS011;49182;50.788;7.318;2024-02-16T21:41:21;15.02;;;7.20;;
43124;SDS011;49182;50.788;7.318;2024-02-16T21:46:26;10.05;;;6.03;;
43124;SDS011;49182;50.788;7.318;2024-02-16T21:51:30;12.32;;;6.05;;
43124;SDS011;49182;50.788;7.318;2024-02-16T21:56:34;11.00;;;5.70;;
43124;SDS011;49182;50.788;7.318;2024-02-16T22:01:37;10.75;;;7.45;;
43124;SDS011;49182;50.788;7.318;2024-02-16T22:06:40;9.60;;;5.43;;
43124;SDS011;49182;50.788;7.318;2024-02-16T22:11:42;9.98;;;5.47;;
43124;SDS011;49182;50.788;7.318;2024-02-16T22:16:44;8.10;;;6.10;;
43124;SDS011;49182;50.788;7.318;2024-02-16T22:21:47;10.30;;;5.93;;
43124;SDS011;49182;50.788;7.318;2024-02-16T22:26:49;8.82;;;6.00;;
43124;SDS011;49182;50.788;7.318;2024-02-16T22:31:50;10.02;;;5.10;;
43124;SDS011;49182;50.788;7.318;2024-02-16T22:37:09;14.20;;;6.68;;
43124;SDS011;49182;50.788;7.318;2024-02-16T22:42:11;10.75;;;7.40;;
43124;SDS011;49182;50.788;7.318;2024-02-16T22:47:13;11.73;;;7.50;;
43124;SDS011;49182;50.788;7.318;2024-02-16T22:52:16;8.70;;;6.43;;
43124;SDS011;49182;50.788;7.318;2024-02-16T22:57:17;10.13;;;6.57;;
43124;SDS011;49182;50.788;7.318;2024-02-16T23:02:19;12.85;;;6.88;;
43124;SDS011;49182;50.788;7.318;2024-02-16T23:07:22;11.02;;;6.65;;
43124;SDS011;49182;50.788;7.318;2024-02-16T23:12:25;15.60;;;8.60;;
43124;SDS011;49182;50.788;7.318;2024-02-16T23:17:27;9.50;;;6.38;;
43124;SDS011;49182;50.788;7.318;2024-02-16T23:22:30;12.82;;;6.40;;
43124;SDS011;49182;50.788;7.318;2024-02-16T23:27:32;13.13;;;6.80;;
43124;SDS011;49182;50.788;7.318;2024-02-16T23:32:33;11.55;;;6.43;;
43124;SDS011;49182;50.788;7.318;2024-02-16T23:37:36;11.85;;;7.32;;
43124;SDS011;49182;50.788;7.318;2024-02-16T23:42:38;11.45;;;7.55;;
43124;SDS011;49182;50.788;7.318;2024-02-16T23:47:40;12.68;;;7.72;;
43124;SDS011;49182;50.788;7.318;2024-02-16T23:52:44;14.13;;;7.03;;
43124;SDS011;49182;50.788;7.318;2024-02-16T23:57:46;16.55;;;8.13;;
